createdAt,value
2022-10-09T00:00:51.123Z,25.77
2022-10-09T00:03:18.306Z,22.38
2022-10-09T00:05:45.854Z,25.85
2022-10-09T00:08:12.768Z,28.95
2022-10-09T00:10:43.733Z,23.83
2022-10-09T00:13:11.175Z,18.67
2022-10-09T00:15:43.021Z,17.23
2022-10-09T00:18:11.633Z,22.27
2022-10-09T00:23:06.327Z,18.00
2022-10-09T00:25:34.073Z,22.60
2022-10-09T00:28:00.793Z,20.92
2022-10-09T00:30:28.014Z,18.33
2022-10-09T00:32:55.044Z,17.52
2022-10-09T00:35:22.229Z,20.20
2022-10-09T00:37:48.861Z,21.33
2022-10-09T00:40:16.417Z,19.20
2022-10-09T00:42:46.587Z,18.00
2022-10-09T00:45:21.741Z,18.55
2022-10-09T00:47:52.987Z,23.60
2022-10-09T00:50:45.702Z,17.90
2022-10-09T00:53:15.762Z,23.58
2022-10-09T00:55:43.352Z,27.38
2022-10-09T00:58:12.441Z,21.80
2022-10-09T01:00:39.768Z,20.10
2022-10-09T01:03:06.390Z,24.90
2022-10-09T01:05:53.521Z,21.52
2022-10-09T01:08:27.889Z,22.55
2022-10-09T01:11:05.203Z,20.38
2022-10-09T01:13:57.814Z,19.95
2022-10-09T01:16:39.418Z,20.42
2022-10-09T01:19:27.598Z,21.73
2022-10-09T01:22:13.509Z,22.25
2022-10-09T01:24:53.032Z,21.70
2022-10-09T01:27:25.687Z,23.48
2022-10-09T01:30:08.326Z,19.52
2022-10-09T01:32:39.684Z,21.13
2022-10-09T01:35:08.749Z,15.48
2022-10-09T01:37:37.361Z,21.50
2022-10-09T01:40:05.867Z,21.08
2022-10-09T01:42:33.153Z,24.42
2022-10-09T01:44:59.799Z,21.25
2022-10-09T01:47:26.964Z,21.27
2022-10-09T01:50:12.082Z,21.52
2022-10-09T01:52:48.790Z,19.67
2022-10-09T01:55:25.055Z,15.88
2022-10-09T01:58:01.706Z,21.88
2022-10-09T02:00:33.563Z,19.92
2022-10-09T02:03:02.659Z,22.15
2022-10-09T02:05:30.858Z,15.45
2022-10-09T02:07:58.475Z,25.60
2022-10-09T02:10:26.139Z,16.40
2022-10-09T02:12:58.881Z,19.40
2022-10-09T02:15:37.729Z,20.17
2022-10-09T02:18:11.227Z,18.52
2022-10-09T02:20:44.335Z,17.70
2022-10-09T02:23:11.879Z,20.40
2022-10-09T02:25:38.965Z,17.17
2022-10-09T02:28:07.353Z,19.05
2022-10-09T02:30:48.804Z,20.48
2022-10-09T02:33:15.482Z,18.27
2022-10-09T02:35:42.988Z,19.92
2022-10-09T02:38:09.654Z,18.58
2022-10-09T02:40:36.227Z,20.30
2022-10-09T02:43:02.773Z,19.08
2022-10-09T02:45:29.360Z,19.88
2022-10-09T02:47:56.103Z,21.27
2022-10-09T02:50:22.926Z,21.65
2022-10-09T02:52:49.921Z,21.13
2022-10-09T02:55:16.641Z,13.23
2022-10-09T02:57:43.360Z,13.82
2022-10-09T03:00:10.576Z,15.18
2022-10-09T03:02:37.260Z,22.25
2022-10-09T03:05:03.989Z,19.02
2022-10-09T03:07:30.726Z,19.58
2022-10-09T03:09:58.383Z,17.00
2022-10-09T03:12:25.121Z,20.00
2022-10-09T03:14:51.800Z,13.23
2022-10-09T03:17:18.373Z,13.63
2022-10-09T03:19:45.008Z,14.68
2022-10-09T03:22:11.584Z,12.48
2022-10-09T03:24:38.240Z,12.52
2022-10-09T03:27:04.861Z,16.40
2022-10-09T03:29:31.393Z,13.00
2022-10-09T03:31:57.986Z,18.40
2022-10-09T03:34:24.615Z,20.52
2022-10-09T03:36:51.197Z,17.13
2022-10-09T03:39:17.846Z,15.38
2022-10-09T03:41:44.511Z,18.38
2022-10-09T03:44:11.329Z,19.35
2022-10-09T03:46:38.070Z,21.58
2022-10-09T03:49:04.752Z,18.52
2022-10-09T03:51:31.461Z,13.70
2022-10-09T03:53:58.390Z,14.23
2022-10-09T03:56:25.109Z,21.00
2022-10-09T03:58:51.712Z,15.50
2022-10-09T04:01:18.327Z,12.52
2022-10-09T04:03:44.907Z,17.92
2022-10-09T04:06:11.750Z,19.13
2022-10-09T04:08:38.396Z,21.48
2022-10-09T04:11:05.093Z,15.27
2022-10-09T04:13:31.722Z,20.48
2022-10-09T04:15:58.559Z,12.82
2022-10-09T04:18:25.549Z,19.95
2022-10-09T04:20:54.387Z,18.48
2022-10-09T04:23:23.927Z,19.92
2022-10-09T04:25:58.564Z,19.83
2022-10-09T04:28:26.496Z,23.92
2022-10-09T04:30:53.325Z,23.33
2022-10-09T04:33:20.475Z,24.45
2022-10-09T04:35:50.843Z,19.50
2022-10-09T04:38:17.882Z,22.23
2022-10-09T04:40:44.652Z,22.75
2022-10-09T04:43:11.287Z,22.60
2022-10-09T04:45:41.345Z,25.45
2022-10-09T04:48:08.096Z,24.42
2022-10-09T04:50:34.640Z,26.15
2022-10-09T04:53:01.214Z,29.50
2022-10-09T04:55:27.819Z,25.63
2022-10-09T04:57:54.341Z,26.58
2022-10-09T05:00:21.061Z,26.65
2022-10-09T05:02:47.927Z,29.17
2022-10-09T05:05:14.746Z,32.75
2022-10-09T05:07:41.375Z,33.47
2022-10-09T05:10:08.391Z,28.65
2022-10-09T05:12:34.992Z,30.60
2022-10-09T05:15:01.620Z,27.23
2022-10-09T05:17:28.234Z,22.80
2022-10-09T05:19:54.879Z,26.02
2022-10-09T05:22:21.455Z,28.02
2022-10-09T05:24:48.062Z,19.40
2022-10-09T05:27:14.699Z,25.00
2022-10-09T05:29:41.409Z,18.38
2022-10-09T05:32:08.180Z,27.02
2022-10-09T05:34:35.277Z,19.48
2022-10-09T05:37:01.864Z,27.25
2022-10-09T05:39:28.451Z,21.65
2022-10-09T05:41:55.065Z,28.08
2022-10-09T05:44:21.912Z,16.90
2022-10-09T05:46:48.455Z,32.53
2022-10-09T05:49:15.135Z,18.70
2022-10-09T05:51:43.117Z,18.60
2022-10-09T05:54:14.914Z,20.52
2022-10-09T05:56:41.595Z,21.55
2022-10-09T05:59:18.907Z,20.17
2022-10-09T06:01:50.557Z,18.95
2022-10-09T06:04:20.191Z,15.93
2022-10-09T06:06:50.543Z,19.85
2022-10-09T06:09:19.769Z,22.02
2022-10-09T06:11:46.486Z,33.47
2022-10-09T06:14:13.915Z,13.80
2022-10-09T06:16:45.205Z,20.98
2022-10-09T06:19:14.344Z,20.60
2022-10-09T06:21:41.434Z,22.00
2022-10-09T06:24:08.012Z,29.13
2022-10-09T06:26:37.361Z,26.20
2022-10-09T06:29:03.938Z,26.15
2022-10-09T06:31:33.004Z,24.83
2022-10-09T06:34:01.774Z,28.83
2022-10-09T06:36:30.319Z,26.20
2022-10-09T06:38:59.592Z,23.08
2022-10-09T06:41:27.713Z,26.83
2022-10-09T06:43:56.889Z,25.63
2022-10-09T06:46:26.353Z,24.10
2022-10-09T06:48:53.158Z,21.23
2022-10-09T06:51:21.383Z,16.05
2022-10-09T06:53:50.531Z,17.05
2022-10-09T06:56:18.451Z,20.08
2022-10-09T06:58:45.560Z,18.98
2022-10-09T07:01:18.036Z,19.00
2022-10-09T07:03:46.853Z,17.42
2022-10-09T07:06:15.034Z,19.17
2022-10-09T07:08:44.091Z,13.98
2022-10-09T07:11:32.403Z,19.15
2022-10-09T07:14:01.552Z,14.50
2022-10-09T07:16:37.087Z,16.10
2022-10-09T07:19:07.601Z,12.88
2022-10-09T07:21:35.448Z,13.40
2022-10-09T07:24:03.103Z,13.93
2022-10-09T07:26:31.996Z,14.35
2022-10-09T07:28:58.964Z,13.63
2022-10-09T07:31:25.654Z,10.07
2022-10-09T07:33:54.081Z,10.75
2022-10-09T07:36:21.177Z,18.00
2022-10-09T07:38:53.243Z,10.82
2022-10-09T07:41:21.640Z,7.15
2022-10-09T07:46:20.174Z,6.50
2022-10-09T07:48:47.547Z,10.18
2022-10-09T07:51:19.010Z,9.18
2022-10-09T07:53:46.503Z,7.38
2022-10-09T07:56:18.645Z,12.40
2022-10-09T07:58:57.447Z,7.38
2022-10-09T08:01:27.689Z,7.38
2022-10-09T08:03:55.019Z,6.15
2022-10-09T08:06:22.310Z,6.60
2022-10-09T08:08:50.831Z,8.23
2022-10-09T08:11:18.401Z,6.88
2022-10-09T08:13:46.167Z,7.73
2022-10-09T08:16:13.155Z,5.32
2022-10-09T08:18:39.884Z,5.63
2022-10-09T08:21:09.050Z,7.03
2022-10-09T08:23:35.898Z,8.63
2022-10-09T08:26:02.560Z,6.05
2022-10-09T08:28:29.215Z,4.57
2022-10-09T08:30:55.967Z,7.25
2022-10-09T08:33:25.005Z,8.57
2022-10-09T08:35:53.279Z,7.90
2022-10-09T08:38:45.569Z,7.22
2022-10-09T08:41:25.557Z,9.67
2022-10-09T08:44:01.191Z,7.78
2022-10-09T08:46:59.267Z,9.95
2022-10-09T08:49:53.033Z,5.78
2022-10-09T08:52:24.594Z,8.82
2022-10-09T08:54:52.889Z,5.60
2022-10-09T08:59:47.797Z,5.28
2022-10-09T09:02:35.618Z,9.90
2022-10-09T09:05:05.124Z,4.93
2022-10-09T09:07:43.791Z,7.53
2022-10-09T09:10:10.546Z,6.63
2022-10-09T09:12:57.295Z,9.18
2022-10-09T09:16:12.194Z,10.63
2022-10-09T09:19:09.841Z,8.25
2022-10-09T09:21:47.652Z,7.22
2022-10-09T09:24:18.969Z,8.35
2022-10-09T09:26:50.081Z,25.50
2022-10-09T09:29:21.779Z,6.20
2022-10-09T09:31:52.890Z,7.80
2022-10-09T09:34:34.793Z,7.82
2022-10-09T09:37:01.712Z,6.75
2022-10-09T09:40:24.209Z,5.93
2022-10-09T09:42:21.064Z,5.90
2022-10-09T09:47:26.586Z,4.25
2022-10-09T09:49:55.194Z,6.47
2022-10-09T09:52:22.304Z,5.90
2022-10-09T09:54:49.466Z,6.25
2022-10-09T09:57:27.662Z,5.25
2022-10-09T09:59:54.274Z,6.25
2022-10-09T10:02:23.568Z,6.95
2022-10-09T10:05:01.491Z,6.65
2022-10-09T10:07:33.540Z,5.55
2022-10-09T10:10:15.632Z,6.32
2022-10-09T10:12:44.934Z,5.50
2022-10-09T10:15:27.602Z,3.90
2022-10-09T10:18:03.943Z,5.53
2022-10-09T10:20:32.582Z,11.23
2022-10-09T10:23:00.763Z,7.45
2022-10-09T10:25:34.017Z,6.40
2022-10-09T10:28:11.668Z,5.72
2022-10-09T10:30:38.914Z,6.15
2022-10-09T10:33:31.575Z,7.32
2022-10-09T10:35:59.277Z,4.63
2022-10-09T10:38:32.472Z,6.68
2022-10-09T10:41:14.668Z,6.57
2022-10-09T10:47:01.936Z,4.78
2022-10-09T10:49:33.532Z,6.20
2022-10-09T10:52:24.856Z,4.88
2022-10-09T10:55:29.834Z,6.88
2022-10-09T10:58:10.391Z,7.13
2022-10-09T11:00:44.074Z,6.22
2022-10-09T11:03:36.423Z,6.35
2022-10-09T11:06:12.978Z,5.47
2022-10-09T11:09:08.987Z,7.82
2022-10-09T11:11:52.835Z,4.55
2022-10-09T11:14:20.525Z,4.25
2022-10-09T11:17:01.206Z,6.63
2022-10-09T11:20:07.561Z,11.95
2022-10-09T11:22:53.350Z,5.07
2022-10-09T11:25:29.578Z,4.32
2022-10-09T11:28:09.467Z,8.00
2022-10-09T11:30:50.411Z,5.43
2022-10-09T11:33:22.610Z,5.82
2022-10-09T11:35:58.686Z,5.55
2022-10-09T11:38:30.064Z,4.78
2022-10-09T11:40:58.393Z,4.82
2022-10-09T11:43:24.912Z,5.28
2022-10-09T11:46:07.561Z,5.38
2022-10-09T11:48:48.576Z,6.03
2022-10-09T11:51:27.833Z,6.13
2022-10-09T11:53:55.029Z,5.20
2022-10-09T11:56:29.912Z,8.70
2022-10-09T11:59:07.392Z,6.82
2022-10-09T12:01:39.650Z,6.37
2022-10-09T12:04:32.425Z,7.05
2022-10-09T12:07:12.551Z,6.85
2022-10-09T12:09:42.569Z,7.10
2022-10-09T12:12:21.990Z,8.23
2022-10-09T12:14:51.043Z,8.15
2022-10-09T12:17:23.695Z,5.93
2022-10-09T12:19:56.293Z,9.15
2022-10-09T12:22:34.817Z,8.13
2022-10-09T12:25:28.155Z,6.50
2022-10-09T12:27:57.305Z,7.88
2022-10-09T12:30:31.550Z,8.43
2022-10-09T12:33:35.975Z,8.30
2022-10-09T12:36:13.727Z,7.82
2022-10-09T12:38:41.116Z,8.55
2022-10-09T12:41:20.013Z,6.97
2022-10-09T12:43:48.691Z,6.32
2022-10-09T12:48:45.835Z,6.75
2022-10-09T12:51:23.256Z,7.03
2022-10-09T12:53:51.516Z,4.70
2022-10-09T12:56:24.658Z,6.45
2022-10-09T12:58:53.105Z,5.22
2022-10-09T13:01:20.673Z,6.45
2022-10-09T13:03:58.302Z,8.70
2022-10-09T13:06:27.988Z,8.67
2022-10-09T13:08:59.527Z,6.40
2022-10-09T13:11:31.801Z,8.15
2022-10-09T13:13:58.413Z,4.68
2022-10-09T13:16:25.504Z,6.75
2022-10-09T13:19:00.125Z,6.57
2022-10-09T13:21:31.490Z,7.32
2022-10-09T13:24:12.045Z,7.22
2022-10-09T13:26:40.761Z,8.38
2022-10-09T13:29:07.916Z,6.95
2022-10-09T13:31:36.678Z,5.97
2022-10-09T13:34:12.965Z,6.35
2022-10-09T13:36:39.621Z,7.45
2022-10-09T13:39:06.755Z,5.03
2022-10-09T13:41:33.801Z,7.28
2022-10-09T13:44:00.438Z,6.53
2022-10-09T13:46:27.018Z,6.90
2022-10-09T13:48:53.638Z,6.88
2022-10-09T13:51:20.253Z,7.28
2022-10-09T13:53:46.815Z,9.40
2022-10-09T13:56:13.430Z,5.38
2022-10-09T13:58:40.056Z,6.68
2022-10-09T14:01:09.299Z,5.18
2022-10-09T14:03:35.955Z,8.15
2022-10-09T14:06:03.951Z,13.93
2022-10-09T14:08:31.264Z,4.40
2022-10-09T14:11:01.195Z,7.15
2022-10-09T14:13:28.707Z,6.00
2022-10-09T14:15:56.182Z,5.87
2022-10-09T14:18:22.772Z,7.68
2022-10-09T14:20:51.185Z,7.60
2022-10-09T14:25:44.199Z,9.98
2022-10-09T14:28:10.871Z,8.13
2022-10-09T14:30:41.198Z,9.98
2022-10-09T14:33:08.160Z,6.47
2022-10-09T14:35:35.487Z,7.55
2022-10-09T14:38:02.277Z,5.55
2022-10-09T14:40:28.816Z,6.32
2022-10-09T14:42:55.562Z,7.53
2022-10-09T14:45:22.212Z,7.10
2022-10-09T14:47:48.788Z,4.72
2022-10-09T14:50:15.537Z,9.90
2022-10-09T14:52:42.373Z,6.03
2022-10-09T14:55:09.334Z,8.40
2022-10-09T14:57:36.181Z,7.93
2022-10-09T15:00:05.360Z,7.25
2022-10-09T15:02:32.177Z,7.18
2022-10-09T15:04:58.862Z,13.57
2022-10-09T15:07:28.029Z,8.68
2022-10-09T15:09:59.599Z,7.05
2022-10-09T15:12:31.971Z,8.02
2022-10-09T15:15:02.501Z,5.22
2022-10-09T15:17:29.347Z,5.10
2022-10-09T15:19:55.957Z,8.13
2022-10-09T15:22:22.584Z,5.30
2022-10-09T15:24:49.580Z,4.32
2022-10-09T15:27:16.157Z,6.53
2022-10-09T15:29:42.805Z,6.10
2022-10-09T15:32:09.672Z,8.55
2022-10-09T15:34:40.620Z,7.93
2022-10-09T15:37:07.842Z,6.45
2022-10-09T15:39:34.470Z,7.00
2022-10-09T15:42:01.125Z,6.45
2022-10-09T15:44:27.706Z,9.20
2022-10-09T15:46:54.422Z,6.53
2022-10-09T15:49:21.140Z,7.82
2022-10-09T15:51:47.750Z,4.95
2022-10-09T15:54:15.330Z,9.63
2022-10-09T15:56:42.351Z,8.53
2022-10-09T15:59:13.608Z,9.48
2022-10-09T16:01:40.259Z,8.00
2022-10-09T16:04:06.868Z,8.40
2022-10-09T16:06:33.578Z,6.55
2022-10-09T16:09:01.120Z,7.68
2022-10-09T16:11:27.682Z,7.03
2022-10-09T16:13:55.627Z,7.07
2022-10-09T16:16:24.801Z,8.02
2022-10-09T16:18:52.331Z,7.10
2022-10-09T16:21:26.015Z,5.68
2022-10-09T16:23:58.149Z,6.70
2022-10-09T16:26:26.902Z,6.97
2022-10-09T16:28:53.622Z,6.53
2022-10-09T16:31:26.255Z,7.47
2022-10-09T16:33:53.284Z,8.85
2022-10-09T16:36:20.049Z,9.82
2022-10-09T16:38:52.658Z,6.00
2022-10-09T16:41:21.235Z,8.43
2022-10-09T16:43:53.252Z,6.03
2022-10-09T16:46:26.554Z,9.27
2022-10-09T16:48:54.635Z,6.10
2022-10-09T16:51:23.998Z,12.88
2022-10-09T16:53:52.373Z,9.32
2022-10-09T16:56:21.800Z,10.02
2022-10-09T16:58:48.849Z,7.72
2022-10-09T17:01:15.889Z,6.65
2022-10-09T17:03:42.585Z,6.10
2022-10-09T17:06:11.796Z,9.43
2022-10-09T17:08:38.851Z,9.00
2022-10-09T17:11:10.632Z,8.07
2022-10-09T17:13:37.451Z,8.02
2022-10-09T17:16:08.992Z,9.90
2022-10-09T17:18:36.931Z,8.80
2022-10-09T17:21:09.261Z,10.55
2022-10-09T17:23:37.016Z,8.05
2022-10-09T17:26:12.643Z,9.33
2022-10-09T17:28:40.424Z,6.75
2022-10-09T17:31:09.990Z,8.60
2022-10-09T17:33:41.153Z,7.20
2022-10-09T17:36:11.664Z,5.38
2022-10-09T17:38:38.967Z,6.25
2022-10-09T17:41:10.702Z,5.28
2022-10-09T17:43:38.288Z,6.68
2022-10-09T17:46:05.079Z,11.00
2022-10-09T17:48:35.901Z,5.70
2022-10-09T17:51:04.217Z,9.05
2022-10-09T17:53:31.421Z,5.65
2022-10-09T17:56:03.307Z,9.50
2022-10-09T17:58:29.988Z,9.00
2022-10-09T18:00:56.907Z,8.05
2022-10-09T18:03:23.634Z,8.98
2022-10-09T18:05:50.822Z,6.32
2022-10-09T18:08:19.446Z,5.50
2022-10-09T18:13:13.063Z,7.85
2022-10-09T18:15:43.906Z,6.47
2022-10-09T18:18:11.425Z,7.18
2022-10-09T18:20:39.202Z,7.13
2022-10-09T18:23:07.289Z,11.20
2022-10-09T18:25:35.120Z,9.73
2022-10-09T18:28:01.942Z,9.73
2022-10-09T18:30:28.794Z,7.90
2022-10-09T18:32:55.745Z,9.07
2022-10-09T18:35:22.671Z,7.15
2022-10-09T18:37:49.266Z,8.82
2022-10-09T18:40:15.862Z,5.57
2022-10-09T18:42:42.713Z,10.10
2022-10-09T18:45:12.645Z,6.93
2022-10-09T18:47:39.559Z,7.15
2022-10-09T18:50:09.362Z,8.27
2022-10-09T18:52:37.451Z,8.25
2022-10-09T18:55:07.353Z,6.72
2022-10-09T18:57:34.491Z,7.07
2022-10-09T19:00:02.259Z,8.30
2022-10-09T19:02:28.812Z,10.63
2022-10-09T19:04:55.578Z,7.07
2022-10-09T19:07:22.171Z,5.25
2022-10-09T19:09:52.413Z,9.02
2022-10-09T19:12:23.021Z,6.55
2022-10-09T19:14:49.886Z,11.98
2022-10-09T19:17:16.621Z,5.88
2022-10-09T19:19:43.224Z,8.90
2022-10-09T19:22:14.880Z,6.10
2022-10-09T19:24:42.813Z,10.00
2022-10-09T19:27:09.614Z,10.57
2022-10-09T19:29:36.601Z,7.10
2022-10-09T19:32:04.870Z,5.97
2022-10-09T19:34:31.709Z,9.55
2022-10-09T19:36:58.440Z,7.90
2022-10-09T19:39:25.099Z,4.57
2022-10-09T19:41:51.756Z,7.07
2022-10-09T19:44:18.778Z,6.75
2022-10-09T19:46:45.846Z,6.45
2022-10-09T19:49:12.729Z,6.20
2022-10-09T19:51:39.444Z,7.93
2022-10-09T19:54:08.357Z,5.63
2022-10-09T19:56:35.640Z,6.50
2022-10-09T19:59:04.982Z,7.50
2022-10-09T20:01:35.177Z,8.05
2022-10-09T20:04:05.351Z,9.48
2022-10-09T20:06:32.137Z,8.40
2022-10-09T20:08:58.779Z,6.38
2022-10-09T20:11:26.447Z,11.65
2022-10-09T20:13:56.295Z,5.57
2022-10-09T20:16:24.526Z,6.43
2022-10-09T20:18:51.178Z,10.10
2022-10-09T20:21:18.523Z,5.43
2022-10-09T20:23:45.532Z,7.40
2022-10-09T20:26:15.301Z,8.65
2022-10-09T20:28:42.743Z,6.60
2022-10-09T20:31:18.264Z,8.93
2022-10-09T20:33:49.195Z,7.30
2022-10-09T20:36:27.819Z,7.22
2022-10-09T20:38:56.484Z,6.20
2022-10-09T20:43:52.102Z,7.95
2022-10-09T20:46:21.450Z,7.72
2022-10-09T20:48:48.311Z,7.53
2022-10-09T20:51:15.294Z,6.07
2022-10-09T20:53:42.120Z,6.03
2022-10-09T20:56:14.271Z,6.30
2022-10-09T20:58:41.241Z,5.25
2022-10-09T21:01:09.454Z,4.50
2022-10-09T21:03:37.471Z,10.05
2022-10-09T21:06:11.287Z,9.00
2022-10-09T21:08:38.586Z,5.22
2022-10-09T21:11:11.689Z,7.07
2022-10-09T21:13:39.640Z,4.72
2022-10-09T21:16:08.333Z,7.03
2022-10-09T21:21:09.032Z,6.18
2022-10-09T21:23:36.230Z,7.22
2022-10-09T21:26:03.595Z,5.72
2022-10-09T21:28:31.254Z,9.13
2022-10-09T21:30:57.885Z,8.90
2022-10-09T21:33:28.284Z,5.28
2022-10-09T21:35:55.433Z,7.20
2022-10-09T21:38:26.315Z,4.78
2022-10-09T21:40:55.220Z,7.57
2022-10-09T21:43:21.941Z,8.10
2022-10-09T21:45:50.030Z,7.55
2022-10-09T21:48:17.438Z,6.53
2022-10-09T21:50:44.720Z,5.25
2022-10-09T21:53:12.850Z,5.70
2022-10-09T21:55:40.700Z,6.15
2022-10-09T21:58:07.995Z,5.80
2022-10-09T22:00:36.076Z,6.65
2022-10-09T22:03:02.768Z,8.85
2022-10-09T22:05:29.652Z,7.30
2022-10-09T22:07:56.332Z,5.75
2022-10-09T22:10:23.011Z,6.15
2022-10-09T22:12:50.484Z,4.13
2022-10-09T22:15:17.356Z,4.57
2022-10-09T22:17:44.221Z,4.30
2022-10-09T22:20:10.932Z,10.50
2022-10-09T22:22:38.869Z,5.78
2022-10-09T22:25:06.078Z,6.05
2022-10-09T22:27:32.664Z,8.25
2022-10-09T22:29:59.443Z,7.00
2022-10-09T22:32:26.034Z,6.85
2022-10-09T22:34:53.274Z,7.93
2022-10-09T22:37:19.925Z,5.25
2022-10-09T22:39:46.654Z,4.80
2022-10-09T22:42:13.264Z,5.32
2022-10-09T22:44:39.940Z,6.85
2022-10-09T22:47:06.488Z,10.55
2022-10-09T22:49:33.094Z,5.55
2022-10-09T22:51:59.645Z,7.00
2022-10-09T22:54:26.193Z,6.68
2022-10-09T22:56:52.783Z,6.05
2022-10-09T22:59:19.441Z,7.95
2022-10-09T23:01:48.490Z,8.52
2022-10-09T23:04:18.122Z,6.60
2022-10-09T23:06:45.556Z,7.95
2022-10-09T23:09:14.280Z,6.65
2022-10-09T23:14:08.456Z,5.70
2022-10-09T23:16:35.153Z,5.32
2022-10-09T23:19:06.786Z,6.07
2022-10-09T23:21:35.311Z,10.18
2022-10-09T23:24:02.261Z,5.50
2022-10-09T23:26:31.095Z,7.88
2022-10-09T23:29:01.577Z,7.80
2022-10-09T23:31:28.925Z,4.68
2022-10-09T23:33:56.549Z,3.75
2022-10-09T23:36:26.401Z,5.68
2022-10-09T23:38:53.400Z,6.32
2022-10-09T23:41:22.744Z,5.93
2022-10-09T23:43:49.682Z,5.25
2022-10-09T23:46:28.203Z,8.70
2022-10-09T23:48:55.565Z,6.30
2022-10-09T23:51:23.927Z,5.75
2022-10-09T23:53:50.910Z,10.52
2022-10-09T23:56:24.929Z,6.10
2022-10-09T23:58:52.665Z,8.63
